Time;durP1;ratioP1;P1;durP2;ratioP2;P2;SDS_P1;SDS_P2;PMS_P1;PMS_P2;Temp;Humidity;BMP_temperature;BMP_pressure;BME280_temperature;BME280_humidity;BME280_pressure;Samples;Min_cycle;Max_cycle;Signal;HPM_P1;HPM_P2
2021/01/22 00:00:07;;;;;;;1.23;0.87;;;4.70;99.90;;;;;;2089138;28;20175;-71
2021/01/22 00:01:08;;;;;;;0.70;0.70;;;4.70;99.90;;;;;;2081199;28;20191;-70
2021/01/22 00:02:09;;;;;;;1.37;0.70;;;4.60;99.90;;;;;;2081471;28;20177;-71
2021/01/22 00:03:09;;;;;;;0.80;0.70;;;4.50;99.90;;;;;;2081283;28;20285;-71
2021/01/22 00:04:10;;;;;;;1.03;0.70;;;4.40;99.90;;;;;;2080871;28;20506;-71
2021/01/22 00:05:11;;;;;;;0.60;0.60;;;4.40;99.90;;;;;;2080878;28;20836;-71
2021/01/22 00:06:12;;;;;;;0.70;0.70;;;4.30;99.90;;;;;;2081684;28;20180;-71
2021/01/22 00:07:13;;;;;;;0.60;0.60;;;4.30;99.90;;;;;;2081414;28;20200;-71
2021/01/22 00:08:14;;;;;;;0.97;0.60;;;4.30;99.90;;;;;;2081741;28;20404;-71
2021/01/22 00:09:14;;;;;;;0.60;0.60;;;4.30;99.90;;;;;;2081437;28;20701;-71
2021/01/22 00:10:15;;;;;;;1.20;0.77;;;4.40;99.90;;;;;;2080733;28;20188;-71
2021/01/22 00:11:16;;;;;;;0.97;0.60;;;4.40;99.90;;;;;;2080599;28;20650;-71
2021/01/22 00:12:17;;;;;;;1.37;0.60;;;4.40;99.90;;;;;;2080689;28;20221;-71
2021/01/22 00:13:18;;;;;;;0.80;0.60;;;4.40;99.90;;;;;;2064477;28;20212;-71
2021/01/22 00:14:19;;;;;;;0.60;0.53;;;4.50;99.90;;;;;;2073044;28;20184;-70
2021/01/22 00:15:20;;;;;;;0.60;0.60;;;4.40;99.90;;;;;;2080640;28;20275;-70
2021/01/22 00:16:20;;;;;;;0.90;0.50;;;4.50;99.90;;;;;;2072628;28;20431;-70
2021/01/22 00:17:21;;;;;;;0.80;0.80;;;4.60;99.90;;;;;;2072448;28;20215;-71
2021/01/22 00:18:22;;;;;;;0.73;0.60;;;4.70;99.90;;;;;;2072652;28;20675;-70
2021/01/22 00:19:22;;;;;;;0.93;0.63;;;4.70;99.90;;;;;;2080614;28;20310;-71
2021/01/22 00:20:23;;;;;;;0.47;0.47;;;4.70;99.90;;;;;;2081302;28;20199;-72
2021/01/22 00:21:24;;;;;;;0.70;0.70;;;4.70;99.90;;;;;;2080516;28;20664;-71
2021/01/22 00:22:25;;;;;;;0.50;0.50;;;4.70;99.90;;;;;;2072538;28;20572;-71
2021/01/22 00:23:27;;;;;;;0.60;0.60;;;4.70;99.90;;;;;;2080344;28;20246;-71
2021/01/22 00:24:27;;;;;;;0.60;0.50;;;4.70;99.90;;;;;;2081395;28;20171;-70
2021/01/22 00:25:28;;;;;;;1.20;0.87;;;4.60;99.90;;;;;;2080632;28;20186;-70
2021/01/22 00:26:29;;;;;;;0.70;0.70;;;4.60;99.90;;;;;;2080832;28;20595;-70
2021/01/22 00:27:29;;;;;;;1.33;0.60;;;4.70;99.90;;;;;;2081271;28;20307;-74
2021/01/22 00:28:30;;;;;;;0.80;0.50;;;4.70;99.90;;;;;;2081205;28;20526;-71
2021/01/22 00:29:31;;;;;;;0.70;0.60;;;4.80;99.90;;;;;;2080570;28;20215;-71
2021/01/22 00:30:32;;;;;;;1.00;0.63;;;4.90;99.90;;;;;;2080894;28;20184;-70
2021/01/22 00:31:33;;;;;;;1.20;0.90;;;5.10;99.90;;;;;;2081019;28;20727;-70
2021/01/22 00:32:33;;;;;;;0.60;0.60;;;5.10;99.90;;;;;;2080687;28;20263;-70
2021/01/22 00:33:34;;;;;;;1.30;0.60;;;5.10;99.90;;;;;;2080356;28;20290;-70
2021/01/22 00:34:35;;;;;;;0.70;0.60;;;5.10;99.90;;;;;;2080848;28;20206;-70
2021/01/22 00:35:35;;;;;;;0.40;0.40;;;5.10;99.90;;;;;;2072216;28;20213;-72
2021/01/22 00:36:36;;;;;;;0.70;0.60;;;5.10;99.90;;;;;;2080678;28;20638;-71
2021/01/22 00:37:37;;;;;;;0.50;0.50;;;5.20;99.90;;;;;;2081328;28;20184;-71
2021/01/22 00:38:37;;;;;;;0.60;0.50;;;5.30;99.90;;;;;;2081221;28;20184;-71
2021/01/22 00:39:38;;;;;;;1.10;0.70;;;5.30;99.90;;;;;;2081150;28;20212;-71
2021/01/22 00:40:39;;;;;;;0.70;0.60;;;5.40;99.90;;;;;;2081171;28;20177;-71
2021/01/22 00:41:39;;;;;;;0.80;0.60;;;5.40;99.90;;;;;;2081121;28;20177;-71
2021/01/22 00:42:40;;;;;;;0.50;0.50;;;5.30;99.90;;;;;;2081218;28;20255;-71
2021/01/22 00:43:41;;;;;;;1.60;0.60;;;5.30;99.90;;;;;;2080698;28;20177;-71
2021/01/22 00:44:41;;;;;;;0.50;0.50;;;5.20;99.90;;;;;;2080548;28;20529;-71
2021/01/22 00:45:42;;;;;;;0.70;0.60;;;5.20;99.90;;;;;;2080700;28;20353;-71
2021/01/22 00:46:43;;;;;;;0.50;0.50;;;5.20;99.90;;;;;;2080545;28;20261;-71
2021/01/22 00:47:43;;;;;;;0.93;0.60;;;5.20;99.90;;;;;;2081324;28;20196;-71
2021/01/22 00:48:44;;;;;;;0.80;0.80;;;5.10;99.90;;;;;;2081041;28;20176;-71
2021/01/22 00:49:45;;;;;;;0.93;0.50;;;5.10;99.90;;;;;;2081183;28;20190;-71
2021/01/22 00:50:46;;;;;;;1.47;0.57;;;5.00;99.90;;;;;;2081126;28;20247;-71
2021/01/22 00:51:46;;;;;;;0.40;0.40;;;5.00;99.90;;;;;;2080380;28;20270;-71
2021/01/22 00:52:47;;;;;;;1.03;0.60;;;5.00;99.90;;;;;;2080427;28;20235;-71
2021/01/22 00:53:48;;;;;;;1.60;0.60;;;5.10;99.90;;;;;;2080735;28;20192;-72
2021/01/22 00:54:48;;;;;;;0.60;0.40;;;5.10;99.90;;;;;;2080510;28;20176;-71
2021/01/22 00:55:49;;;;;;;1.47;0.80;;;5.10;99.90;;;;;;2081140;28;20180;-72
2021/01/22 00:56:50;;;;;;;0.60;0.60;;;5.10;99.90;;;;;;2081142;28;20211;-71
2021/01/22 00:57:51;;;;;;;0.97;0.60;;;5.10;99.90;;;;;;2080633;28;20263;-71
2021/01/22 00:58:51;;;;;;;1.67;1.00;;;5.10;99.90;;;;;;2080552;28;20203;-71
2021/01/22 00:59:52;;;;;;;2.07;0.60;;;5.20;99.90;;;;;;2072389;28;20182;-71
2021/01/22 01:00:53;;;;;;;0.57;0.40;;;5.30;99.90;;;;;;2063877;28;20226;-71
2021/01/22 01:01:53;;;;;;;1.90;0.57;;;5.30;99.90;;;;;;2080634;28;20223;-71
2021/01/22 01:02:54;;;;;;;1.30;0.70;;;5.30;99.90;;;;;;2080326;28;20173;-71
2021/01/22 01:03:55;;;;;;;0.90;0.50;;;5.40;99.90;;;;;;2072424;28;20174;-71
2021/01/22 01:04:56;;;;;;;0.97;0.50;;;5.40;99.90;;;;;;2072328;28;20243;-71
2021/01/22 01:05:56;;;;;;;0.80;0.60;;;5.40;99.90;;;;;;2080304;28;20186;-71
2021/01/22 01:06:57;;;;;;;1.20;0.70;;;5.40;99.90;;;;;;2080341;28;20551;-71
2021/01/22 01:07:58;;;;;;;2.13;0.60;;;5.40;99.90;;;;;;2072381;28;20212;-71
2021/01/22 01:08:58;;;;;;;2.50;0.77;;;5.50;99.90;;;;;;2072273;28;20252;-71
2021/01/22 01:09:59;;;;;;;0.70;0.60;;;5.50;99.90;;;;;;2080510;28;20658;-71
2021/01/22 01:11:00;;;;;;;1.80;0.70;;;5.50;99.90;;;;;;2080229;28;20181;-71
2021/01/22 01:12:00;;;;;;;0.63;0.50;;;5.50;99.90;;;;;;2080541;28;20176;-71
2021/01/22 01:13:01;;;;;;;1.90;0.60;;;5.50;99.90;;;;;;2080975;28;20268;-72
2021/01/22 01:14:02;;;;;;;1.93;0.60;;;5.60;99.90;;;;;;2080601;28;20643;-71
2021/01/22 01:15:07;;;;;;;2.23;0.80;;;5.60;99.90;;;;;;2080603;28;20230;-71
2021/01/22 01:16:08;;;;;;;2.05;0.70;;;5.60;99.90;;;;;;2080404;28;20195;-71
2021/01/22 01:17:08;;;;;;;2.07;0.70;;;5.50;99.90;;;;;;2080417;28;20271;-72
2021/01/22 01:18:09;;;;;;;1.67;0.63;;;5.60;99.90;;;;;;2081109;28;20671;-71
2021/01/22 01:19:10;;;;;;;2.70;0.87;;;5.50;99.90;;;;;;2081176;28;20220;-71
2021/01/22 01:20:12;;;;;;;1.30;0.53;;;5.50;99.90;;;;;;2081059;28;20172;-71
2021/01/22 01:21:13;;;;;;;4.20;0.90;;;5.60;99.90;;;;;;2080336;28;20503;-71
2021/01/22 01:22:14;;;;;;;0.88;0.63;;;5.60;99.90;;;;;;2071964;28;20251;-71
2021/01/22 01:23:14;;;;;;;2.33;0.77;;;5.60;99.90;;;;;;2080568;28;20199;-71
2021/01/22 01:24:15;;;;;;;3.63;1.07;;;5.60;99.90;;;;;;2081097;28;20599;-71
2021/01/22 01:25:16;;;;;;;2.30;0.80;;;5.60;99.90;;;;;;2080648;28;20180;-72
2021/01/22 01:26:17;;;;;;;1.13;0.77;;;5.50;99.90;;;;;;2080344;28;20308;-72
2021/01/22 01:27:17;;;;;;;3.07;0.73;;;5.50;99.90;;;;;;2081215;28;20185;-72
2021/01/22 01:28:18;;;;;;;2.60;1.03;;;5.50;99.90;;;;;;2072053;28;20707;-71
2021/01/22 01:29:19;;;;;;;0.90;0.80;;;5.60;99.90;;;;;;2072445;28;20243;-72
2021/01/22 01:30:20;;;;;;;3.40;0.90;;;5.50;99.90;;;;;;2080934;28;20208;-72
2021/01/22 01:31:21;;;;;;;2.75;0.88;;;5.50;99.90;;;;;;2081011;28;20192;-71
2021/01/22 01:32:21;;;;;;;3.03;0.97;;;5.50;99.90;;;;;;2072174;28;20668;-72
2021/01/22 01:33:22;;;;;;;2.17;1.00;;;5.60;99.90;;;;;;2072183;28;20201;-71
2021/01/22 01:34:23;;;;;;;2.60;1.20;;;5.50;99.90;;;;;;2072257;28;20182;-71
2021/01/22 01:35:23;;;;;;;3.47;1.20;;;5.50;99.90;;;;;;2072270;28;20228;-71
2021/01/22 01:36:24;;;;;;;4.70;1.10;;;5.60;99.90;;;;;;2080466;28;20674;-71
2021/01/22 01:37:25;;;;;;;2.37;0.80;;;5.50;99.90;;;;;;2072319;28;20193;-71
2021/01/22 01:38:25;;;;;;;1.27;0.80;;;5.50;99.90;;;;;;2072304;28;20181;-71
2021/01/22 01:39:26;;;;;;;3.50;1.00;;;5.40;99.90;;;;;;2080544;28;20211;-72
2021/01/22 01:40:27;;;;;;;3.37;1.10;;;5.40;99.90;;;;;;2081065;28;20835;-72
2021/01/22 01:41:27;;;;;;;2.90;1.00;;;5.50;99.90;;;;;;2072179;28;20217;-72
2021/01/22 01:42:28;;;;;;;4.33;1.13;;;5.60;99.90;;;;;;2072205;28;20206;-71
2021/01/22 01:43:29;;;;;;;2.90;0.90;;;5.70;99.90;;;;;;2081119;28;20567;-71
2021/01/22 01:44:29;;;;;;;3.20;1.07;;;5.70;99.90;;;;;;2080920;28;20177;-71
2021/01/22 01:45:30;;;;;;;3.80;0.73;;;5.70;99.90;;;;;;2081150;28;20177;-71
2021/01/22 01:46:32;;;;;;;4.13;1.20;;;5.70;99.90;;;;;;2081592;28;20196;-71
2021/01/22 01:47:32;;;;;;;2.90;0.90;;;5.70;99.90;;;;;;2083425;28;20188;-72
2021/01/22 01:48:33;;;;;;;4.47;1.20;;;5.70;99.90;;;;;;2082183;28;20177;-71
2021/01/22 01:49:34;;;;;;;3.20;1.00;;;5.70;99.90;;;;;;2082631;28;20180;-72
2021/01/22 01:50:36;;;;;;;5.60;1.40;;;5.60;99.90;;;;;;2082298;28;20184;-71
2021/01/22 01:51:36;;;;;;;3.92;0.90;;;5.70;99.90;;;;;;2073931;28;20200;-71
2021/01/22 01:52:37;;;;;;;3.80;1.00;;;5.60;99.90;;;;;;2073899;28;20182;-72
2021/01/22 01:53:38;;;;;;;5.50;1.20;;;5.60;99.90;;;;;;2074171;28;20185;-72
2021/01/22 01:54:41;;;;;;;3.25;1.10;;;5.50;99.90;;;;;;2081985;28;20181;-72
2021/01/22 01:55:42;;;;;;;5.13;0.98;;;5.60;99.90;;;;;;2082605;28;20187;-71
2021/01/22 01:56:43;;;;;;;3.37;1.20;;;5.60;99.90;;;;;;2082487;28;20181;-72
2021/01/22 01:57:43;;;;;;;3.97;1.10;;;5.60;99.90;;;;;;2082001;28;20211;-72
2021/01/22 01:58:44;;;;;;;4.53;0.90;;;5.60;99.90;;;;;;2082149;28;20804;-71
2021/01/22 01:59:45;;;;;;;3.43;1.13;;;5.60;99.90;;;;;;2074037;28;20181;-71
2021/01/22 02:00:46;;;;;;;4.60;1.27;;;5.60;99.90;;;;;;2073859;28;20675;-72
2021/01/22 02:01:48;;;;;;;8.13;1.27;;;5.50;99.90;;;;;;2081944;28;20186;-72
2021/01/22 02:02:49;;;;;;;5.03;1.00;;;5.50;99.90;;;;;;2081967;28;20811;-71
2021/01/22 02:03:49;;;;;;;3.80;1.40;;;5.50;99.90;;;;;;2081873;28;20189;-71
2021/01/22 02:04:50;;;;;;;4.73;1.30;;;5.60;99.90;;;;;;2082154;28;20397;-71
2021/01/22 02:05:51;;;;;;;2.67;1.20;;;5.70;99.90;;;;;;2082662;28;20272;-71
2021/01/22 02:06:51;;;;;;;3.57;1.10;;;5.70;99.90;;;;;;2082776;28;20177;-72
2021/01/22 02:07:52;;;;;;;2.50;1.00;;;5.80;99.90;;;;;;2073776;28;20706;-72
2021/01/22 02:08:53;;;;;;;2.43;1.07;;;5.80;99.90;;;;;;2065577;28;20654;-72
2021/01/22 02:09:54;;;;;;;5.23;1.20;;;5.70;99.90;;;;;;2073583;28;20201;-72
2021/01/22 02:10:56;;;;;;;2.50;0.93;;;5.70;99.90;;;;;;2073545;28;20265;-71
2021/01/22 02:11:57;;;;;;;4.47;1.50;;;5.60;99.90;;;;;;2073592;28;20185;-72
2021/01/22 02:13:01;;;;;;;5.10;1.20;;;5.60;99.90;;;;;;2081823;28;20570;-72
2021/01/22 02:14:03;;;;;;;5.55;1.58;;;5.70;99.90;;;;;;2081685;28;20237;-71
2021/01/22 02:15:06;;;;;;;6.28;1.20;;;5.70;99.90;;;;;;2073559;28;20185;-72
2021/01/22 02:16:08;;;;;;;5.63;1.30;;;5.60;99.90;;;;;;2073890;28;20186;-71
2021/01/22 02:17:10;;;;;;;5.22;1.25;;;5.70;99.90;;;;;;2081627;28;20189;-71
2021/01/22 02:18:11;;;;;;;4.55;1.30;;;5.70;99.90;;;;;;2081567;28;20215;-71
2021/01/22 02:19:13;;;;;;;3.30;1.20;;;5.80;99.90;;;;;;2081725;28;20303;-71
2021/01/22 02:21:10;;;;;;;5.65;1.30;;;5.80;99.90;;;;;;2081580;28;20185;-71
2021/01/22 02:22:10;;;;;;;6.30;1.45;;;5.80;99.90;;;;;;2082048;28;20234;-71
2021/01/22 02:23:14;;;;;;;3.90;1.10;;;5.80;99.90;;;;;;2081681;28;20224;-70
2021/01/22 02:24:20;;;;;;;6.05;1.65;;;5.80;99.90;;;;;;2073464;28;20698;-70
2021/01/22 02:25:32;;;;;;;7.65;1.60;;;5.70;99.90;;;;;;2074307;28;20200;-71
2021/01/22 02:26:36;;;;;;;6.47;1.63;;;5.60;99.90;;;;;;2074769;28;20188;-71
2021/01/22 02:27:38;;;;;;;3.65;1.20;;;5.60;99.90;;;;;;2073974;28;20183;-71
2021/01/22 02:28:41;;;;;;;3.97;1.13;;;5.50;99.90;;;;;;2081594;28;20189;-72
2021/01/22 02:29:42;;;;;;;7.43;1.20;;;5.60;99.90;;;;;;2073785;28;20178;-71
2021/01/22 02:30:45;;;;;;;5.85;1.30;;;5.50;99.90;;;;;;2081577;28;20173;-71
2021/01/22 02:31:48;;;;;;;3.20;1.58;;;5.40;99.90;;;;;;2081696;28;20625;-71
2021/01/22 02:32:49;;;;;;;5.45;1.40;;;5.40;99.90;;;;;;2073086;28;20181;-71
2021/01/22 02:33:53;;;;;;;4.78;1.48;;;5.30;99.90;;;;;;2065366;28;20607;-71
2021/01/22 02:34:57;;;;;;;6.75;1.05;;;5.30;99.90;;;;;;2073685;28;20184;-71
2021/01/22 02:35:58;;;;;;;5.00;1.20;;;5.30;99.90;;;;;;2081538;28;20231;-71
2021/01/22 02:37:01;;;;;;;5.53;1.20;;;5.40;99.90;;;;;;2073281;28;20182;-71
2021/01/22 02:38:03;;;;;;;6.07;1.25;;;5.50;99.90;;;;;;2081463;28;20192;-71
2021/01/22 02:39:08;;;;;;;5.45;1.38;;;5.50;99.90;;;;;;2081445;28;20181;-71
2021/01/22 02:40:10;;;;;;;4.75;1.10;;;5.40;99.90;;;;;;2081618;28;20165;-71
2021/01/22 02:41:14;;;;;;;3.95;1.23;;;5.40;99.90;;;;;;2081246;28;20185;-71
2021/01/22 02:42:16;;;;;;;6.45;1.25;;;5.40;99.90;;;;;;2081638;28;20651;-72
2021/01/22 02:43:17;;;;;;;8.27;1.67;;;5.50;99.90;;;;;;2065152;28;20713;-71
2021/01/22 02:44:18;;;;;;;3.57;1.10;;;5.60;99.90;;;;;;2065254;28;20177;-71
2021/01/22 02:45:20;;;;;;;5.97;1.10;;;5.60;99.90;;;;;;2073159;28;20174;-71
2021/01/22 02:46:22;;;;;;;9.02;1.42;;;5.50;99.90;;;;;;2073453;28;20174;-71
2021/01/22 02:47:26;;;;;;;3.03;1.00;;;5.40;99.90;;;;;;2073370;28;20185;-71
2021/01/22 02:48:27;;;;;;;4.55;1.58;;;5.50;99.90;;;;;;2081511;28;20559;-72
2021/01/22 02:49:27;;;;;;;5.88;1.42;;;5.50;99.90;;;;;;2081427;28;20691;-71
2021/01/22 02:50:33;;;;;;;5.97;1.30;;;5.50;99.90;;;;;;2082058;28;20184;-71
2021/01/22 02:51:33;;;;;;;5.53;1.38;;;5.60;99.90;;;;;;2081178;28;20230;-71
2021/01/22 02:52:36;;;;;;;6.70;1.47;;;5.60;99.90;;;;;;2081668;28;20653;-71
2021/01/22 02:53:38;;;;;;;2.08;1.10;;;5.60;99.90;;;;;;2073111;28;20246;-71
2021/01/22 02:54:38;;;;;;;3.22;1.17;;;5.50;99.90;;;;;;2065307;28;20225;-72
2021/01/22 02:55:40;;;;;;;7.50;1.33;;;5.50;99.90;;;;;;2081443;28;20667;-72
2021/01/22 02:57:09;;;;;;;4.95;1.38;;;5.50;99.90;;;;;;2089716;28;20186;-71
2021/01/22 02:58:51;;;;;;;2.03;0.90;;;5.40;99.90;;;;;;2081348;28;20595;-71
2021/01/22 03:00:19;;;;;;;4.15;1.02;;;5.40;99.90;;;;;;2032597;29;20602;-71
2021/01/22 03:01:25;;;;;;;4.32;1.38;;;5.40;99.90;;;;;;2064112;28;20247;-71
2021/01/22 03:02:54;;;;;;;4.57;1.00;;;5.30;99.90;;;;;;2065890;28;20186;-71
2021/01/22 03:04:09;;;;;;;3.42;1.00;;;5.40;99.90;;;;;;2077558;28;20256;-71
2021/01/22 03:05:15;;;;;;;5.30;1.20;;;5.40;99.90;;;;;;2083032;28;20193;-71
2021/01/22 03:06:25;;;;;;;3.22;0.90;;;5.40;99.90;;;;;;2082106;28;20192;-73
2021/01/22 03:07:34;;;;;;;8.15;1.60;;;5.40;99.90;;;;;;2074421;28;20189;-71
2021/01/22 03:08:38;;;;;;;3.33;1.00;;;5.30;99.90;;;;;;2082502;28;20730;-72
2021/01/22 03:09:43;;;;;;;5.28;1.23;;;5.30;99.90;;;;;;2081584;28;20212;-71
2021/01/22 03:10:46;;;;;;;4.50;1.63;;;5.30;99.90;;;;;;2081783;28;20192;-71
2021/01/22 03:11:51;;;;;;;4.80;1.23;;;5.20;99.90;;;;;;2081536;28;20191;-71
2021/01/22 03:12:56;;;;;;;4.05;1.20;;;5.20;99.90;;;;;;2081924;28;20184;-71
2021/01/22 03:13:58;;;;;;;5.45;1.20;;;5.20;99.90;;;;;;2081757;28;20200;-72
2021/01/22 03:14:59;;;;;;;4.18;1.17;;;5.30;99.90;;;;;;2081568;28;20188;-71
2021/01/22 03:16:01;;;;;;;4.63;1.30;;;5.20;99.90;;;;;;2089432;28;20176;-71
2021/01/22 03:17:02;;;;;;;3.83;1.60;;;5.20;99.90;;;;;;2089428;28;20575;-71
2021/01/22 03:18:18;;;;;;;3.57;1.10;;;5.10;99.90;;;;;;2089574;28;20289;-71
2021/01/22 03:19:19;;;;;;;1.98;0.82;;;4.90;99.90;;;;;;2074968;28;20209;-71
2021/01/22 03:20:21;;;;;;;2.80;1.63;;;4.80;99.90;;;;;;2073083;28;20234;-72
2021/01/22 03:21:21;;;;;;;7.20;1.42;;;4.70;99.90;;;;;;2081125;28;20173;-71
2021/01/22 03:22:22;;;;;;;2.23;1.10;;;4.70;99.90;;;;;;2081119;28;20750;-72
2021/01/22 03:23:23;;;;;;;3.05;1.05;;;4.60;99.90;;;;;;2081197;28;20693;-71
2021/01/22 03:24:24;;;;;;;4.87;1.20;;;4.70;99.90;;;;;;2089434;28;20175;-71
2021/01/22 03:25:24;;;;;;;3.53;1.20;;;4.70;99.90;;;;;;2090256;28;20470;-71
2021/01/22 03:26:25;;;;;;;3.67;1.13;;;4.80;99.90;;;;;;2089359;28;20188;-72
2021/01/22 03:27:26;;;;;;;5.63;1.80;;;4.70;99.90;;;;;;2081078;28;20191;-71
2021/01/22 03:28:27;;;;;;;4.90;1.40;;;4.70;99.90;;;;;;2089435;28;20434;-71
2021/01/22 03:29:27;;;;;;;2.23;1.10;;;4.80;99.90;;;;;;2090148;28;20193;-71
2021/01/22 03:30:28;;;;;;;4.20;1.20;;;4.70;99.90;;;;;;2097621;28;20194;-71
2021/01/22 03:31:29;;;;;;;4.07;1.40;;;4.70;99.90;;;;;;2097468;28;20262;-71
2021/01/22 03:32:29;;;;;;;1.47;0.97;;;4.70;99.90;;;;;;2089897;28;20180;-71
2021/01/22 03:33:30;;;;;;;3.63;1.20;;;4.60;99.90;;;;;;2090080;28;20203;-71
2021/01/22 03:34:31;;;;;;;2.83;1.53;;;4.60;99.90;;;;;;2090092;28;20853;-71
2021/01/22 03:35:32;;;;;;;3.90;1.30;;;4.60;99.90;;;;;;2081127;28;20188;-71
2021/01/22 03:36:32;;;;;;;3.63;1.30;;;4.60;99.90;;;;;;2073046;28;20644;-71
2021/01/22 03:37:33;;;;;;;4.13;1.40;;;4.70;99.90;;;;;;2089401;28;20212;-71
2021/01/22 03:38:34;;;;;;;3.97;1.20;;;4.70;99.90;;;;;;2097486;28;20244;-71
2021/01/22 03:39:35;;;;;;;5.35;1.65;;;4.70;99.90;;;;;;2097526;28;20203;-71
2021/01/22 03:40:36;;;;;;;3.63;1.40;;;4.70;99.90;;;;;;2081009;28;20191;-71
2021/01/22 03:41:37;;;;;;;2.13;1.23;;;4.70;99.90;;;;;;2072805;28;20187;-71
2021/01/22 03:42:37;;;;;;;3.10;1.30;;;4.70;99.90;;;;;;2072683;28;20692;-71
2021/01/22 03:43:38;;;;;;;1.97;1.20;;;4.70;99.90;;;;;;2072429;28;20203;-71
2021/01/22 03:44:39;;;;;;;5.67;1.53;;;4.80;99.90;;;;;;2081177;28;20646;-71
2021/01/22 03:45:40;;;;;;;5.60;1.23;;;4.80;99.90;;;;;;2081178;28;20183;-71
2021/01/22 03:46:41;;;;;;;5.05;1.40;;;4.80;99.90;;;;;;2081081;28;20187;-71
2021/01/22 03:47:43;;;;;;;4.40;1.23;;;4.70;99.90;;;;;;2081089;28;20187;-71
2021/01/22 03:48:43;;;;;;;3.50;1.35;;;4.80;99.90;;;;;;2080948;28;20822;-71
2021/01/22 03:49:44;;;;;;;5.60;1.37;;;4.80;99.90;;;;;;2081015;28;20190;-71
2021/01/22 03:50:45;;;;;;;5.43;1.67;;;4.90;99.90;;;;;;2072641;28;20228;-71
2021/01/22 03:51:45;;;;;;;3.43;1.27;;;4.80;99.90;;;;;;2064483;28;20619;-71
2021/01/22 03:52:46;;;;;;;5.53;1.40;;;4.80;99.90;;;;;;2064477;28;20197;-71
2021/01/22 03:53:47;;;;;;;3.03;1.33;;;4.80;99.90;;;;;;2080872;28;20188;-71
2021/01/22 03:54:47;;;;;;;5.30;1.13;;;4.80;99.90;;;;;;2081491;28;20184;-71
2021/01/22 03:55:48;;;;;;;4.10;1.20;;;4.90;99.90;;;;;;2081541;28;20658;-71
2021/01/22 03:56:49;;;;;;;2.03;1.02;;;4.90;99.90;;;;;;2081511;28;20234;-71
2021/01/22 03:57:50;;;;;;;2.10;1.10;;;4.90;99.90;;;;;;2080803;28;20188;-71
2021/01/22 03:58:51;;;;;;;1.83;1.10;;;4.90;99.90;;;;;;2072897;28;20598;-71
2021/01/22 03:59:51;;;;;;;3.87;1.13;;;4.80;99.90;;;;;;2072575;28;20237;-71
2021/01/22 04:00:52;;;;;;;1.70;0.90;;;4.80;99.90;;;;;;2080743;28;20257;-71
2021/01/22 04:01:53;;;;;;;2.73;1.20;;;4.90;99.90;;;;;;2080819;28;20590;-71
2021/01/22 04:02:54;;;;;;;2.10;0.80;;;4.80;99.90;;;;;;2072741;28;20177;-71
2021/01/22 04:03:54;;;;;;;1.63;1.20;;;4.80;99.90;;;;;;2072628;28;20327;-71
2021/01/22 04:04:55;;;;;;;3.05;1.05;;;4.80;99.90;;;;;;2072657;28;20207;-72
2021/01/22 04:05:56;;;;;;;1.97;0.90;;;4.90;99.90;;;;;;2080875;28;20189;-71
2021/01/22 04:06:57;;;;;;;2.83;1.10;;;4.90;99.90;;;;;;2081379;28;20177;-71
2021/01/22 04:07:57;;;;;;;2.50;1.10;;;4.90;99.90;;;;;;2080627;28;20602;-71
2021/01/22 04:08:58;;;;;;;0.70;0.60;;;4.80;99.90;;;;;;2072814;28;20203;-71
2021/01/22 04:09:59;;;;;;;2.23;0.90;;;4.80;99.90;;;;;;2080153;28;20176;-71
2021/01/22 04:10:59;;;;;;;1.97;1.00;;;4.80;99.90;;;;;;2080431;28;20180;-72
2021/01/22 04:12:00;;;;;;;1.60;1.10;;;4.80;99.90;;;;;;2064432;28;20185;-71
2021/01/22 04:13:01;;;;;;;4.17;1.20;;;4.90;99.90;;;;;;2064530;28;20598;-72
2021/01/22 04:14:01;;;;;;;1.03;0.73;;;4.90;99.90;;;;;;2080689;28;20268;-71
2021/01/22 04:15:04;;;;;;;1.80;1.00;;;4.90;99.90;;;;;;2081458;28;20659;-71
2021/01/22 04:16:05;;;;;;;1.85;0.93;;;4.90;99.90;;;;;;2081071;28;20627;-71
2021/01/22 04:17:06;;;;;;;2.20;0.83;;;4.90;99.90;;;;;;2081498;28;20223;-71
2021/01/22 04:18:06;;;;;;;3.47;1.20;;;4.80;99.90;;;;;;2080565;28;20172;-71
2021/01/22 04:19:07;;;;;;;1.60;0.80;;;4.60;99.90;;;;;;2080754;28;20229;-71
2021/01/22 04:20:08;;;;;;;2.77;1.00;;;4.40;99.90;;;;;;2081365;28;20177;-71
2021/01/22 04:21:09;;;;;;;3.85;0.90;;;4.30;99.90;;;;;;2080492;28;20286;-71
2021/01/22 04:22:10;;;;;;;3.93;1.47;;;4.20;99.90;;;;;;2072552;28;20181;-71
2021/01/22 04:23:11;;;;;;;3.13;1.07;;;4.20;99.90;;;;;;2064339;28;20205;-71
2021/01/22 04:24:11;;;;;;;4.27;1.10;;;4.10;99.90;;;;;;2072518;28;20199;-71
2021/01/22 04:25:12;;;;;;;2.33;0.80;;;4.10;99.90;;;;;;2080850;28;20722;-71
2021/01/22 04:26:13;;;;;;;2.50;0.90;;;4.10;99.90;;;;;;2072320;28;20553;-71
2021/01/22 04:27:13;;;;;;;2.07;1.00;;;4.10;99.90;;;;;;2072651;28;20172;-71
2021/01/22 04:28:14;;;;;;;1.33;0.80;;;4.10;99.90;;;;;;2072448;28;20607;-71
2021/01/22 04:29:15;;;;;;;1.70;0.87;;;4.10;99.90;;;;;;2072623;28;20189;-71
2021/01/22 04:30:16;;;;;;;2.07;1.00;;;4.10;99.90;;;;;;2080659;28;20192;-71
2021/01/22 04:31:17;;;;;;;1.92;1.00;;;4.10;99.90;;;;;;2088779;28;20190;-71
2021/01/22 04:32:18;;;;;;;2.23;1.10;;;4.10;99.90;;;;;;2080536;28;20179;-72
2021/01/22 04:33:18;;;;;;;2.13;1.20;;;4.10;99.90;;;;;;2072471;28;20208;-71
2021/01/22 04:34:19;;;;;;;2.10;0.90;;;4.10;99.90;;;;;;2072636;28;20238;-72
2021/01/22 04:35:20;;;;;;;1.77;0.90;;;4.00;99.90;;;;;;2080817;28;20196;-70
2021/01/22 04:36:20;;;;;;;1.20;0.70;;;4.00;99.90;;;;;;2080683;28;20194;-71
2021/01/22 04:37:21;;;;;;;0.77;0.60;;;4.10;99.90;;;;;;2080401;28;20182;-70
2021/01/22 04:38:22;;;;;;;1.47;0.80;;;4.10;99.90;;;;;;2072579;28;20184;-70
2021/01/22 04:39:22;;;;;;;1.53;0.70;;;4.10;99.90;;;;;;2072410;28;20212;-70
2021/01/22 04:40:25;;;;;;;4.23;1.13;;;4.20;99.90;;;;;;2081479;28;20217;-70
2021/01/22 04:41:26;;;;;;;1.77;0.93;;;4.30;99.90;;;;;;2080276;28;20192;-70
2021/01/22 04:42:27;;;;;;;2.93;0.83;;;4.30;99.90;;;;;;2080804;28;20176;-74
2021/01/22 04:43:27;;;;;;;1.87;0.70;;;4.40;99.90;;;;;;2081189;28;20201;-70
2021/01/22 04:44:28;;;;;;;2.87;0.70;;;4.40;99.90;;;;;;2072467;28;20183;-71
2021/01/22 04:45:29;;;;;;;1.53;0.80;;;4.40;99.90;;;;;;2064246;28;20235;-71
2021/01/22 04:46:35;;;;;;;2.20;0.80;;;4.40;99.90;;;;;;2072644;28;20176;-71
2021/01/22 04:47:41;;;;;;;1.52;0.85;;;4.50;99.90;;;;;;2073042;28;20906;-70
2021/01/22 04:48:42;;;;;;;1.25;0.90;;;4.60;99.90;;;;;;2073126;28;20208;-72
2021/01/22 04:49:49;;;;;;;1.38;0.88;;;4.60;99.90;;;;;;2080642;28;20697;-70
2021/01/22 04:50:52;;;;;;;1.95;0.82;;;4.70;99.90;;;;;;2081263;28;20648;-70
2021/01/22 04:51:56;;;;;;;2.75;1.02;;;4.60;99.90;;;;;;2080625;28;20183;-70
2021/01/22 04:53:02;;;;;;;4.25;0.70;;;4.70;99.90;;;;;;2073162;28;20228;-73
2021/01/22 04:54:13;;;;;;;2.83;0.73;;;4.80;99.90;;;;;;2073212;28;20181;-70
2021/01/22 04:55:15;;;;;;;1.63;0.77;;;4.80;99.90;;;;;;2073959;28;20260;-70
2021/01/22 04:56:17;;;;;;;2.33;1.35;;;4.80;99.90;;;;;;2080756;28;20195;-70
2021/01/22 04:57:18;;;;;;;2.38;1.10;;;4.80;99.90;;;;;;2080591;28;20219;-70
2021/01/22 04:58:20;;;;;;;1.48;1.10;;;4.90;99.90;;;;;;2072550;28;20597;-70
2021/01/22 04:59:48;;;;;;;1.02;0.75;;;5.00;99.90;;;;;;2072509;28;20221;-70
2021/01/22 05:00:50;;;;;;;1.73;0.80;;;5.10;99.90;;;;;;2076139;28;20215;-70
2021/01/22 05:01:53;;;;;;;3.85;0.98;;;5.10;99.90;;;;;;2072426;28;20189;-70
2021/01/22 05:02:54;;;;;;;3.03;0.82;;;5.10;99.90;;;;;;2064488;28;20189;-70
2021/01/22 05:03:58;;;;;;;2.73;0.80;;;5.30;99.90;;;;;;2072309;28;20177;-70
2021/01/22 05:04:59;;;;;;;3.17;0.95;;;5.20;99.90;;;;;;2080726;28;20411;-70
2021/01/22 05:06:00;;;;;;;2.53;1.00;;;5.30;99.90;;;;;;2080524;28;20188;-70
2021/01/22 05:07:00;;;;;;;2.37;0.80;;;5.40;99.90;;;;;;2081175;28;20172;-70
2021/01/22 05:08:03;;;;;;;3.00;1.00;;;5.40;99.90;;;;;;2081142;28;20201;-71
2021/01/22 05:09:04;;;;;;;2.10;0.82;;;5.30;99.90;;;;;;2080707;28;20271;-70
2021/01/22 05:10:06;;;;;;;0.75;0.60;;;5.30;99.90;;;;;;2072296;28;20735;-70
2021/01/22 05:11:07;;;;;;;1.75;0.90;;;5.30;99.90;;;;;;2080586;28;20188;-70
2021/01/22 05:12:08;;;;;;;1.40;0.70;;;5.30;99.90;;;;;;2081269;28;20185;-70
2021/01/22 05:13:09;;;;;;;2.22;0.70;;;5.40;99.90;;;;;;2081191;28;20193;-73
2021/01/22 05:14:10;;;;;;;2.95;1.08;;;5.40;99.90;;;;;;2080464;28;20789;-70
2021/01/22 05:15:24;;;;;;;2.00;0.80;;;5.40;99.90;;;;;;2080516;28;20169;-71
2021/01/22 05:16:24;;;;;;;1.67;0.70;;;5.30;99.90;;;;;;2080643;28;20200;-71
2021/01/22 05:17:25;;;;;;;1.07;0.60;;;5.40;99.90;;;;;;2080893;28;20579;-70
2021/01/22 05:18:30;;;;;;;3.13;0.90;;;5.40;99.90;;;;;;2080687;28;20868;-70
2021/01/22 05:19:33;;;;;;;4.05;0.80;;;5.40;99.90;;;;;;2080955;28;20204;-70
2021/01/22 05:20:41;;;;;;;1.75;0.80;;;5.50;99.90;;;;;;2080492;28;20187;-70
2021/01/22 05:21:42;;;;;;;3.35;0.73;;;5.50;99.90;;;;;;2080721;28;20274;-70
2021/01/22 05:22:48;;;;;;;4.07;1.03;;;5.60;99.90;;;;;;2081694;28;20757;-70
2021/01/22 05:23:49;;;;;;;1.50;0.90;;;5.70;99.90;;;;;;2066731;28;20169;-71
2021/01/22 05:25:00;;;;;;;2.45;1.63;;;5.70;99.90;;;;;;2074126;28;20669;-71
2021/01/22 05:26:10;;;;;;;1.65;0.77;;;5.60;99.90;;;;;;2082096;28;20660;-71
2021/01/22 05:27:13;;;;;;;3.38;0.80;;;5.50;99.90;;;;;;2075259;28;20180;-71
2021/01/22 05:28:14;;;;;;;2.30;0.88;;;5.50;99.90;;;;;;2074575;28;20180;-71